Time;durP1;ratioP1;P1;durP2;ratioP2;P2;SDS_P1;SDS_P2;PMS_P1;PMS_P2;Temp;Humidity;BMP_temperature;BMP_pressure;BME280_temperature;BME280_humidity;BME280_pressure;Samples;Min_cycle;Max_cycle;Signal;HPM_P1;HPM_P2
2023/05/24 00:00:29;;;;;;;0.30;0.30;;;10.90;99.90;;;;;;5003437;28;20068;-68
2023/05/24 00:02:56;;;;;;;3.20;1.27;;;10.90;99.90;;;;;;5006113;28;20096;-68
2023/05/24 00:05:22;;;;;;;0.10;0.10;;;10.90;99.90;;;;;;5007476;28;20116;-69
2023/05/24 00:07:48;;;;;;;0.85;0.85;;;10.90;99.90;;;;;;5010086;28;20490;-68
2023/05/24 00:10:14;;;;;;;0.32;0.32;;;10.90;99.90;;;;;;5004825;28;20049;-69
2023/05/24 00:12:39;;;;;;;0.32;0.32;;;10.90;99.90;;;;;;5004413;28;20080;-68
2023/05/24 00:15:05;;;;;;;0.00;0.00;;;10.90;99.90;;;;;;5007500;28;20046;-69
2023/05/24 00:17:33;;;;;;;0.22;0.22;;;11.00;99.90;;;;;;5004286;28;20061;-69
2023/05/24 00:19:59;;;;;;;0.10;0.10;;;10.90;99.90;;;;;;5005923;28;20583;-68
2023/05/24 00:22:24;;;;;;;2.50;1.30;;;10.90;99.90;;;;;;5004907;28;20039;-69
2023/05/24 00:24:50;;;;;;;0.20;0.20;;;10.90;99.90;;;;;;4997772;28;20140;-68
2023/05/24 00:27:16;;;;;;;3.72;1.65;;;11.00;99.90;;;;;;5005615;28;20046;-68
2023/05/24 00:29:41;;;;;;;0.22;0.22;;;10.90;99.90;;;;;;5001581;28;20117;-69
2023/05/24 00:32:07;;;;;;;0.85;0.50;;;10.90;99.90;;;;;;5011223;28;20397;-69
2023/05/24 00:34:32;;;;;;;2.47;1.02;;;10.90;99.90;;;;;;5013065;28;20046;-69
2023/05/24 00:36:59;;;;;;;0.20;0.20;;;10.90;99.90;;;;;;5011088;28;20512;-69
2023/05/24 00:39:25;;;;;;;0.63;0.50;;;11.00;99.90;;;;;;5006632;28;20042;-69
2023/05/24 00:41:51;;;;;;;0.10;0.10;;;10.90;99.90;;;;;;5014285;28;20128;-69
2023/05/24 00:44:16;;;;;;;3.50;0.90;;;11.00;99.90;;;;;;5011088;28;20046;-69
2023/05/24 00:46:42;;;;;;;0.20;0.20;;;11.00;99.90;;;;;;5007027;28;20465;-69
2023/05/24 00:49:08;;;;;;;0.35;0.35;;;10.90;99.90;;;;;;5006907;28;20401;-68
2023/05/24 00:51:35;;;;;;;1.65;1.55;;;10.90;99.90;;;;;;5010318;28;20042;-69
2023/05/24 00:54:01;;;;;;;1.65;1.10;;;11.00;99.90;;;;;;5003433;28;20054;-69
2023/05/24 00:56:27;;;;;;;1.50;1.40;;;11.00;99.90;;;;;;5005675;28;20057;-68
2023/05/24 00:58:55;;;;;;;0.00;0.00;;;10.90;99.90;;;;;;5004101;28;20540;-69
2023/05/24 01:01:25;;;;;;;0.60;0.60;;;10.90;99.90;;;;;;5008361;28;20375;-69
2023/05/24 01:03:53;;;;;;;0.38;0.38;;;11.00;99.90;;;;;;5010826;28;20100;-69
2023/05/24 01:06:19;;;;;;;2.35;0.98;;;11.00;99.90;;;;;;5000427;28;20056;-68
2023/05/24 01:09:18;;;;;;;0.00;0.00;;;11.00;99.90;;;;;;5008279;28;20034;-69
2023/05/24 01:11:53;;;;;;;0.10;0.10;;;11.00;99.90;;;;;;5007381;28;20046;-68
2023/05/24 01:14:28;;;;;;;0.10;0.10;;;11.00;99.90;;;;;;5001727;28;20046;-69
2023/05/24 01:17:04;;;;;;;0.85;0.77;;;10.90;99.90;;;;;;5001111;28;20037;-69
2023/05/24 01:19:58;;;;;;;0.10;0.10;;;10.90;99.90;;;;;;5004362;28;20046;-68
2023/05/24 01:22:38;;;;;;;0.22;0.22;;;11.00;99.90;;;;;;5002999;28;20393;-69
2023/05/24 01:25:31;;;;;;;0.00;0.00;;;11.00;99.90;;;;;;4999220;28;20073;-69
2023/05/24 01:27:58;;;;;;;0.08;0.08;;;10.90;99.90;;;;;;5004140;28;20437;-66
2023/05/24 01:30:26;;;;;;;1.08;1.02;;;10.90;99.90;;;;;;5010598;28;20050;-67
2023/05/24 01:32:52;;;;;;;0.47;0.47;;;10.90;99.90;;;;;;5002646;28;20042;-66
2023/05/24 01:35:18;;;;;;;3.85;0.57;;;10.90;99.90;;;;;;5001110;28;20052;-67
2023/05/24 01:37:44;;;;;;;0.05;0.05;;;10.90;99.90;;;;;;5003323;28;20038;-67
2023/05/24 01:40:10;;;;;;;0.10;0.10;;;11.00;99.90;;;;;;5007802;28;20092;-66
2023/05/24 01:42:59;;;;;;;0.10;0.10;;;11.00;99.90;;;;;;4995538;28;20445;-67
2023/05/24 01:45:38;;;;;;;1.90;0.88;;;11.00;99.90;;;;;;5008334;28;20379;-66
2023/05/24 01:48:26;;;;;;;0.30;0.30;;;11.00;99.90;;;;;;5008205;28;20052;-66
2023/05/24 01:50:59;;;;;;;0.20;0.20;;;11.10;99.90;;;;;;4994685;28;20061;-66
2023/05/24 01:53:27;;;;;;;0.45;0.45;;;11.00;99.90;;;;;;5008256;28;20037;-66
2023/05/24 01:55:56;;;;;;;2.33;1.10;;;11.00;99.90;;;;;;5012857;28;20503;-66
2023/05/24 01:58:24;;;;;;;0.03;0.03;;;11.00;99.90;;;;;;5003603;28;20075;-66
2023/05/24 02:00:50;;;;;;;0.10;0.10;;;10.90;99.90;;;;;;5000819;28;20053;-67
2023/05/24 02:03:16;;;;;;;0.52;0.52;;;11.00;99.90;;;;;;5008203;28;20053;-66
2023/05/24 02:05:43;;;;;;;0.50;0.50;;;11.00;99.90;;;;;;4996284;28;20057;-66
2023/05/24 02:08:09;;;;;;;0.30;0.30;;;11.00;99.90;;;;;;5003539;28;21227;-67
2023/05/24 02:10:38;;;;;;;0.20;0.20;;;11.00;99.90;;;;;;5007055;28;20044;-66
2023/05/24 02:13:03;;;;;;;0.10;0.10;;;10.90;99.90;;;;;;5002990;28;20050;-66
2023/05/24 02:15:29;;;;;;;0.20;0.20;;;11.00;99.90;;;;;;5003588;28;20048;-66
2023/05/24 02:17:55;;;;;;;1.27;0.85;;;11.00;99.90;;;;;;4998434;28;20402;-66
2023/05/24 02:20:24;;;;;;;0.00;0.00;;;11.00;99.90;;;;;;4999068;28;20507;-66
2023/05/24 02:22:49;;;;;;;12.43;3.40;;;11.00;99.90;;;;;;5003393;28;20050;-66
2023/05/24 02:25:15;;;;;;;3.55;1.23;;;11.00;99.90;;;;;;4998989;28;20440;-66
2023/05/24 02:27:45;;;;;;;1.33;1.23;;;11.00;99.90;;;;;;5007929;28;20129;-66
2023/05/24 02:30:11;;;;;;;0.40;0.40;;;10.90;99.90;;;;;;5007359;28;20046;-66
2023/05/24 02:32:37;;;;;;;5.18;1.10;;;10.90;99.90;;;;;;5000955;28;20133;-66
2023/05/24 02:35:03;;;;;;;15.05;2.38;;;10.90;99.90;;;;;;5004802;28;20132;-67
2023/05/24 02:37:28;;;;;;;0.00;0.00;;;10.90;99.90;;;;;;4999598;28;20034;-66
2023/05/24 02:39:54;;;;;;;0.10;0.10;;;10.90;99.90;;;;;;5009159;28;20049;-66
2023/05/24 02:42:20;;;;;;;0.35;0.35;;;10.80;99.90;;;;;;5001006;28;20049;-66
2023/05/24 02:44:47;;;;;;;3.30;1.23;;;10.70;99.90;;;;;;5003506;28;20069;-66
2023/05/24 02:47:14;;;;;;;0.25;0.25;;;10.70;99.90;;;;;;5001698;28;20054;-66
2023/05/24 02:49:40;;;;;;;1.27;1.23;;;10.60;99.90;;;;;;5002166;28;20478;-66
2023/05/24 02:52:06;;;;;;;1.23;1.17;;;10.70;99.90;;;;;;4993402;28;20507;-66
2023/05/24 02:54:31;;;;;;;0.10;0.10;;;10.60;99.90;;;;;;5002326;28;20045;-66
2023/05/24 02:56:57;;;;;;;0.22;0.22;;;10.60;99.90;;;;;;5004485;28;20049;-66
2023/05/24 02:59:23;;;;;;;1.30;0.77;;;10.60;99.90;;;;;;5003487;28;20068;-66
2023/05/24 03:01:49;;;;;;;0.95;0.90;;;10.60;99.90;;;;;;5000904;28;20062;-66
2023/05/24 03:04:15;;;;;;;0.08;0.08;;;10.60;99.90;;;;;;5002621;28;20093;-66
2023/05/24 03:06:40;;;;;;;0.65;0.65;;;10.60;99.90;;;;;;5008223;28;20497;-66
2023/05/24 03:09:06;;;;;;;0.22;0.22;;;10.60;99.90;;;;;;5008456;28;20050;-66
2023/05/24 03:11:32;;;;;;;0.10;0.10;;;10.50;99.90;;;;;;5003914;28;20033;-66
2023/05/24 03:13:57;;;;;;;0.20;0.20;;;10.60;99.90;;;;;;5011435;28;20066;-65
2023/05/24 03:16:24;;;;;;;0.32;0.32;;;10.60;99.90;;;;;;5002858;28;20548;-66
2023/05/24 03:18:49;;;;;;;0.00;0.00;;;10.60;99.90;;;;;;5007093;28;20045;-66
2023/05/24 03:21:16;;;;;;;0.45;0.45;;;10.60;99.90;;;;;;5013629;28;20050;-66
2023/05/24 03:23:41;;;;;;;0.30;0.28;;;10.60;99.90;;;;;;5008051;28;20038;-66
2023/05/24 03:26:07;;;;;;;0.10;0.10;;;10.60;99.90;;;;;;4998313;28;20050;-66
2023/05/24 03:28:32;;;;;;;0.32;0.22;;;10.60;99.90;;;;;;5014349;28;20044;-66
2023/05/24 03:30:58;;;;;;;0.40;0.40;;;10.60;99.90;;;;;;5000996;28;20482;-66
2023/05/24 03:33:24;;;;;;;0.10;0.10;;;10.70;99.90;;;;;;5011146;28;20049;-66
2023/05/24 03:35:50;;;;;;;0.10;0.10;;;10.70;99.90;;;;;;5001400;28;20057;-66
2023/05/24 03:38:16;;;;;;;0.30;0.30;;;10.70;99.90;;;;;;5001699;28;20149;-66
2023/05/24 03:40:41;;;;;;;0.65;0.65;;;10.80;99.90;;;;;;5007993;28;20128;-65
2023/05/24 03:43:07;;;;;;;1.70;1.17;;;10.70;99.90;;;;;;5011254;28;20053;-66
2023/05/24 03:45:32;;;;;;;0.40;0.40;;;10.80;99.90;;;;;;5008619;28;20049;-66
2023/05/24 03:47:58;;;;;;;0.00;0.00;;;10.80;99.90;;;;;;4998935;28;20053;-65
2023/05/24 03:50:23;;;;;;;0.10;0.10;;;10.80;99.90;;;;;;5009580;28;20088;-66
2023/05/24 03:52:49;;;;;;;0.17;0.13;;;10.90;99.90;;;;;;5001780;28;20096;-66
2023/05/24 03:55:15;;;;;;;0.50;0.50;;;10.90;99.90;;;;;;5008975;28;20991;-65
2023/05/24 03:57:41;;;;;;;0.10;0.10;;;11.00;99.90;;;;;;5004392;28;20109;-65
2023/05/24 04:00:08;;;;;;;0.13;0.13;;;10.90;99.90;;;;;;5005683;28;20061;-65
2023/05/24 04:02:36;;;;;;;0.65;0.65;;;10.90;99.90;;;;;;5011966;28;20136;-65
2023/05/24 04:05:03;;;;;;;0.10;0.10;;;11.00;99.90;;;;;;5006306;28;20054;-65
2023/05/24 04:07:32;;;;;;;0.13;0.13;;;11.00;99.90;;;;;;4998111;28;20045;-65
2023/05/24 04:09:58;;;;;;;0.40;0.40;;;11.00;99.90;;;;;;5005587;28;20120;-66
2023/05/24 04:12:24;;;;;;;33.97;0.90;;;11.00;99.90;;;;;;5007868;28;20192;-65
2023/05/24 04:14:50;;;;;;;0.30;0.30;;;11.00;99.90;;;;;;5009766;28;20056;-67
2023/05/24 04:17:17;;;;;;;0.88;0.85;;;11.00;99.90;;;;;;5005226;28;20045;-67
2023/05/24 04:19:42;;;;;;;0.10;0.10;;;11.10;99.90;;;;;;5007368;28;20108;-68
2023/05/24 04:22:08;;;;;;;0.10;0.10;;;11.00;99.90;;;;;;5008478;28;20513;-67
2023/05/24 04:24:33;;;;;;;0.73;0.73;;;11.10;99.90;;;;;;5008423;28;20065;-68
2023/05/24 04:26:59;;;;;;;0.10;0.10;;;11.10;99.90;;;;;;4999654;28;20057;-68
2023/05/24 04:29:25;;;;;;;5.00;0.80;;;11.10;99.90;;;;;;5004433;28;20046;-67
2023/05/24 04:31:51;;;;;;;0.63;0.63;;;11.20;99.90;;;;;;5005004;28;20042;-67
2023/05/24 04:34:17;;;;;;;0.10;0.10;;;11.30;99.90;;;;;;4998622;28;20485;-68
2023/05/24 04:36:42;;;;;;;0.03;0.03;;;11.40;99.90;;;;;;5006832;28;20070;-67
2023/05/24 04:39:08;;;;;;;0.82;0.73;;;11.40;99.90;;;;;;5003603;28;20056;-67
2023/05/24 04:41:34;;;;;;;0.32;0.32;;;11.50;99.90;;;;;;5011348;28;20034;-68
2023/05/24 04:44:01;;;;;;;0.43;0.43;;;11.60;99.90;;;;;;4998101;28;20038;-67
2023/05/24 04:46:27;;;;;;;0.32;0.32;;;11.60;99.90;;;;;;5009059;28;20486;-67
2023/05/24 04:48:53;;;;;;;0.10;0.10;;;11.60;99.90;;;;;;5033592;28;20038;-67
2023/05/24 04:51:20;;;;;;;0.20;0.20;;;11.70;99.90;;;;;;5007006;28;20510;-67
2023/05/24 04:53:46;;;;;;;0.10;0.10;;;11.70;99.90;;;;;;5004018;28;20053;-67
2023/05/24 04:56:13;;;;;;;0.25;0.25;;;11.80;99.90;;;;;;5002938;28;20049;-68
2023/05/24 04:58:39;;;;;;;5.72;1.95;;;11.90;99.90;;;;;;5041429;28;20049;-67
2023/05/24 05:01:05;;;;;;;0.68;0.68;;;11.90;99.90;;;;;;5007416;28;20053;-67
2023/05/24 05:03:31;;;;;;;4.88;2.08;;;12.00;99.90;;;;;;5034502;28;20054;-67
2023/05/24 05:05:56;;;;;;;3.28;1.02;;;12.00;99.90;;;;;;5025098;28;20084;-67
2023/05/24 05:08:22;;;;;;;0.00;0.00;;;12.00;99.90;;;;;;5010267;28;20064;-67
2023/05/24 05:10:47;;;;;;;0.10;0.10;;;12.00;99.90;;;;;;5002109;28;20045;-67
2023/05/24 05:13:13;;;;;;;0.98;0.80;;;12.00;99.90;;;;;;5002173;28;20057;-67
2023/05/24 05:15:39;;;;;;;0.10;0.10;;;12.00;99.90;;;;;;5010046;28;20505;-67
2023/05/24 05:18:04;;;;;;;0.47;0.47;;;12.00;99.90;;;;;;5004684;28;20046;-67
2023/05/24 05:20:30;;;;;;;0.08;0.08;;;12.00;99.90;;;;;;5004050;28;20049;-67
2023/05/24 05:22:55;;;;;;;0.57;0.57;;;12.10;99.90;;;;;;5011480;28;20045;-67
2023/05/24 05:25:21;;;;;;;0.30;0.30;;;12.10;99.90;;;;;;5016248;28;20101;-67
2023/05/24 05:27:46;;;;;;;0.40;0.40;;;12.10;99.90;;;;;;5007079;28;20517;-67
2023/05/24 05:30:12;;;;;;;0.10;0.10;;;12.20;99.90;;;;;;5009555;28;20038;-67
2023/05/24 05:32:38;;;;;;;0.00;0.00;;;12.20;99.90;;;;;;5006193;28;20129;-67
2023/05/24 05:35:04;;;;;;;0.10;0.10;;;12.20;99.90;;;;;;4999918;28;20038;-67
2023/05/24 05:37:30;;;;;;;0.10;0.10;;;12.20;99.90;;;;;;5005473;28;20508;-67
2023/05/24 05:39:55;;;;;;;0.10;0.10;;;12.30;99.90;;;;;;5001106;28;20034;-67
2023/05/24 05:42:21;;;;;;;0.00;0.00;;;12.40;99.90;;;;;;5008048;28;20034;-67
2023/05/24 05:44:46;;;;;;;0.08;0.08;;;12.50;99.90;;;;;;5003038;28;20060;-67
2023/05/24 05:47:12;;;;;;;2.95;0.95;;;12.50;99.90;;;;;;5000282;28;20405;-67
2023/05/24 05:49:37;;;;;;;0.10;0.10;;;12.50;99.90;;;;;;5008095;28;20054;-66
2023/05/24 05:52:04;;;;;;;4.78;0.82;;;12.40;99.90;;;;;;5006988;28;20057;-67
2023/05/24 05:54:30;;;;;;;0.10;0.10;;;12.50;99.90;;;;;;4999468;28;20041;-66
2023/05/24 05:56:56;;;;;;;0.63;0.63;;;12.50;99.90;;;;;;5042415;28;20042;-67
2023/05/24 05:59:21;;;;;;;2.30;0.90;;;12.40;99.90;;;;;;4999408;28;20501;-66
2023/05/24 06:01:47;;;;;;;0.10;0.10;;;12.50;99.90;;;;;;5036952;28;20045;-66
2023/05/24 06:04:14;;;;;;;23.83;0.75;;;12.50;99.90;;;;;;5006840;28;20077;-66
2023/05/24 06:06:39;;;;;;;0.13;0.13;;;12.50;99.90;;;;;;4996800;28;20042;-66
2023/05/24 06:09:05;;;;;;;4.57;1.10;;;12.50;99.90;;;;;;5001925;28;20056;-67
2023/05/24 06:11:31;;;;;;;0.10;0.10;;;12.50;99.90;;;;;;5004347;28;20084;-67
2023/05/24 06:13:56;;;;;;;0.00;0.00;;;12.50;99.90;;;;;;4995916;28;20078;-67
2023/05/24 06:16:22;;;;;;;0.20;0.20;;;12.60;99.90;;;;;;5002521;28;20474;-67
2023/05/24 06:18:47;;;;;;;0.00;0.00;;;12.60;99.90;;;;;;5007979;28;20057;-67
2023/05/24 06:21:14;;;;;;;0.00;0.00;;;12.60;99.90;;;;;;4992747;28;20759;-67
2023/05/24 06:23:39;;;;;;;0.00;0.00;;;12.70;99.90;;;;;;5025691;28;20046;-66
2023/05/24 06:26:08;;;;;;;0.00;0.00;;;12.70;99.90;;;;;;5000321;28;20410;-67
2023/05/24 06:28:34;;;;;;;12.95;1.50;;;12.80;99.90;;;;;;4996759;28;20054;-67
2023/05/24 06:31:00;;;;;;;0.98;0.98;;;12.90;99.90;;;;;;5001887;28;20069;-67
2023/05/24 06:33:26;;;;;;;0.00;0.00;;;13.00;99.90;;;;;;5002564;28;20123;-67
2023/05/24 06:35:52;;;;;;;1.38;0.35;;;13.00;99.90;;;;;;5002403;28;20081;-67
2023/05/24 06:38:17;;;;;;;0.50;0.50;;;13.10;99.90;;;;;;5008409;28;20564;-67
2023/05/24 06:40:43;;;;;;;0.10;0.10;;;13.20;99.90;;;;;;4999074;28;20485;-66
2023/05/24 06:43:09;;;;;;;2.60;1.13;;;13.30;99.90;;;;;;5004917;28;20060;-67
2023/05/24 06:45:34;;;;;;;0.75;0.75;;;13.40;99.90;;;;;;5017471;28;20049;-67
2023/05/24 06:48:00;;;;;;;0.22;0.22;;;13.60;99.90;;;;;;5008787;28;20179;-67
2023/05/24 06:50:26;;;;;;;0.10;0.10;;;13.60;99.90;;;;;;5012246;28;20037;-67
2023/05/24 06:52:51;;;;;;;1.15;0.50;;;13.60;99.90;;;;;;5011516;28;20125;-67
2023/05/24 06:55:18;;;;;;;0.10;0.10;;;13.70;99.90;;;;;;5001804;28;20042;-67
2023/05/24 06:57:44;;;;;;;0.70;0.70;;;13.60;99.90;;;;;;5010720;28;20068;-67
2023/05/24 07:00:10;;;;;;;1.45;0.38;;;13.70;99.90;;;;;;4998432;28;20046;-67
2023/05/24 07:02:37;;;;;;;0.10;0.10;;;13.80;99.90;;;;;;5006697;28;20034;-67
2023/05/24 07:05:03;;;;;;;0.15;0.15;;;13.80;99.90;;;;;;5012363;28;20049;-67
2023/05/24 07:07:28;;;;;;;1.73;1.65;;;13.90;99.90;;;;;;5005959;28;20490;-67
2023/05/24 07:09:54;;;;;;;0.10;0.10;;;13.90;99.90;;;;;;5005311;28;20033;-68
2023/05/24 07:12:20;;;;;;;3.40;1.30;;;13.90;99.90;;;;;;5011657;28;20100;-68
2023/05/24 07:14:46;;;;;;;0.10;0.10;;;13.90;99.90;;;;;;5008625;28;20042;-68
2023/05/24 07:17:11;;;;;;;0.00;0.00;;;13.90;99.90;;;;;;4996955;28;20500;-67
2023/05/24 07:19:37;;;;;;;0.00;0.00;;;13.90;99.90;;;;;;5006478;28;20030;-68
2023/05/24 07:22:02;;;;;;;0.10;0.10;;;13.90;99.90;;;;;;5002922;28;20505;-67
2023/05/24 07:24:28;;;;;;;5.63;1.00;;;13.80;99.90;;;;;;5001860;28;20117;-68
2023/05/24 07:26:56;;;;;;;0.00;0.00;;;13.70;99.90;;;;;;4999205;28;20455;-67
2023/05/24 07:29:22;;;;;;;0.25;0.25;;;13.70;99.90;;;;;;5004991;28;20080;-68
2023/05/24 07:31:47;;;;;;;1.45;0.57;;;13.70;99.90;;;;;;5006035;28;20050;-68
2023/05/24 07:34:13;;;;;;;0.17;0.17;;;13.70;99.90;;;;;;5000222;28;20474;-68
2023/05/24 07:36:39;;;;;;;0.30;0.30;;;13.80;99.90;;;;;;5000277;28;20101;-68
2023/05/24 07:39:08;;;;;;;0.10;0.10;;;14.10;99.90;;;;;;5004486;28;20069;-68
2023/05/24 07:41:34;;;;;;;0.20;0.20;;;14.30;99.90;;;;;;5007785;28;20046;-68
2023/05/24 07:44:00;;;;;;;0.17;0.17;;;14.50;99.90;;;;;;5005193;28;20133;-68
2023/05/24 07:46:25;;;;;;;0.20;0.20;;;14.60;99.90;;;;;;5011397;28;20049;-68
2023/05/24 07:48:52;;;;;;;0.10;0.10;;;14.50;99.90;;;;;;5006860;28;20041;-69
2023/05/24 07:51:17;;;;;;;0.10;0.10;;;14.40;99.90;;;;;;5007479;28;20046;-69
2023/05/24 07:53:43;;;;;;;3.75;0.68;;;14.60;99.90;;;;;;5007545;28;20547;-69
2023/05/24 07:56:08;;;;;;;0.47;0.47;;;14.70;99.90;;;;;;5007074;28;20050;-69
2023/05/24 07:58:34;;;;;;;0.10;0.10;;;14.80;99.90;;;;;;5005753;28;20120;-70
2023/05/24 08:01:00;;;;;;;0.00;0.00;;;14.90;99.90;;;;;;5001065;28;20072;-69
2023/05/24 08:03:26;;;;;;;0.25;0.25;;;14.90;99.90;;;;;;5014263;28;20487;-68
2023/05/24 08:05:52;;;;;;;0.10;0.10;;;14.80;99.90;;;;;;5000890;28;20039;-68
2023/05/24 08:08:18;;;;;;;0.10;0.10;;;14.70;99.90;;;;;;5006436;28;20057;-68
2023/05/24 08:10:43;;;;;;;0.22;0.22;;;14.60;99.90;;;;;;5000061;28;20117;-68
2023/05/24 08:13:09;;;;;;;0.03;0.03;;;14.50;99.90;;;;;;5004848;28;20124;-68
2023/05/24 08:15:35;;;;;;;0.10;0.10;;;14.40;99.90;;;;;;5009963;28;20033;-68
2023/05/24 08:18:00;;;;;;;0.80;0.80;;;14.40;99.90;;;;;;5003222;28;20683;-68
2023/05/24 08:20:26;;;;;;;0.73;0.30;;;14.40;99.90;;;;;;5006807;28;20034;-68
2023/05/24 08:22:51;;;;;;;0.10;0.10;;;14.70;99.90;;;;;;5034148;28;20054;-69
2023/05/24 08:25:18;;;;;;;11.40;1.55;;;14.90;99.90;;;;;;5005321;28;20056;-69
2023/05/24 08:27:44;;;;;;;0.52;0.52;;;14.80;99.90;;;;;;5004566;28;20054;-68
2023/05/24 08:30:11;;;;;;;0.50;0.50;;;14.70;99.90;;;;;;5005308;28;20049;-68
2023/05/24 08:32:37;;;;;;;0.17;0.17;;;14.70;99.90;;;;;;4998732;28;20085;-68
2023/05/24 08:35:02;;;;;;;3.60;2.28;;;14.90;99.90;;;;;;5005301;28;20070;-69
2023/05/24 08:37:30;;;;;;;0.40;0.40;;;14.80;99.90;;;;;;5006149;28;20069;-68
2023/05/24 08:39:56;;;;;;;0.10;0.10;;;14.70;99.90;;;;;;5002656;28;20536;-68
2023/05/24 08:42:23;;;;;;;0.90;0.73;;;14.50;99.90;;;;;;5032311;28;20167;-68
2023/05/24 08:45:01;;;;;;;0.00;0.00;;;14.40;99.90;;;;;;5008912;28;20049;-68
2023/05/24 08:47:28;;;;;;;0.00;0.00;;;14.40;99.90;;;;;;5005475;28;20508;-68
2023/05/24 08:49:54;;;;;;;0.45;0.30;;;14.40;99.90;;;;;;5010098;28;20049;-68
2023/05/24 08:52:21;;;;;;;0.40;0.40;;;14.50;99.90;;;;;;4995145;28;20042;-68
2023/05/24 08:54:48;;;;;;;0.28;0.28;;;14.50;99.90;;;;;;5004311;28;20481;-68
2023/05/24 08:57:15;;;;;;;1.35;0.52;;;14.60;99.90;;;;;;5000203;28;20050;-68
2023/05/24 08:59:41;;;;;;;0.52;0.30;;;14.80;99.90;;;;;;5009998;28;20409;-68
2023/05/24 09:02:12;;;;;;;0.28;0.28;;;14.90;99.90;;;;;;5011258;28;20145;-67
2023/05/24 09:04:40;;;;;;;0.08;0.08;;;15.00;99.90;;;;;;5002362;28;20422;-68
2023/05/24 09:07:07;;;;;;;0.00;0.00;;;15.00;99.90;;;;;;5000883;28;20041;-68
2023/05/24 09:09:34;;;;;;;0.20;0.20;;;14.90;99.90;;;;;;5004203;28;20136;-68
2023/05/24 09:12:04;;;;;;;0.75;0.75;;;14.80;99.90;;;;;;5008331;28;20116;-68
2023/05/24 09:14:30;;;;;;;0.03;0.03;;;14.80;99.90;;;;;;4999946;28;20037;-68
2023/05/24 09:16:56;;;;;;;0.00;0.00;;;14.70;99.90;;;;;;4995712;28;20046;-68
2023/05/24 09:19:22;;;;;;;0.20;0.20;;;14.70;99.90;;;;;;5014224;28;20042;-67
2023/05/24 09:21:49;;;;;;;0.10;0.10;;;14.80;99.90;;;;;;4997741;28;20121;-69
2023/05/24 09:24:15;;;;;;;0.73;0.68;;;14.90;99.90;;;;;;4997960;28;20401;-69
2023/05/24 09:26:41;;;;;;;0.10;0.10;;;15.00;99.90;;;;;;5005780;28;20049;-68
2023/05/24 09:29:08;;;;;;;0.05;0.05;;;15.00;99.90;;;;;;5003678;28;20080;-68
2023/05/24 09:31:35;;;;;;;0.60;0.38;;;14.90;99.90;;;;;;4999111;28;20099;-68
2023/05/24 09:34:02;;;;;;;0.10;0.10;;;14.90;99.90;;;;;;4997337;28;20061;-68
2023/05/24 09:36:28;;;;;;;0.00;0.00;;;15.00;99.90;;;;;;4997753;28;20042;-69
2023/05/24 09:39:07;;;;;;;0.10;0.10;;;15.00;99.90;;;;;;5009299;28;20041;-69
2023/05/24 09:41:33;;;;;;;0.40;0.40;;;15.10;99.90;;;;;;5004377;28;20052;-68
2023/05/24 09:44:00;;;;;;;0.10;0.10;;;15.20;99.90;;;;;;5008879;28;20034;-68
2023/05/24 09:46:27;;;;;;;0.32;0.32;;;15.20;99.90;;;;;;5006854;28;20549;-68
2023/05/24 09:49:02;;;;;;;0.00;0.00;;;15.10;99.90;;;;;;5008077;28;20046;-68
2023/05/24 09:51:28;;;;;;;0.03;0.03;;;15.00;99.90;;;;;;5005862;28;20042;-68
2023/05/24 09:54:00;;;;;;;0.10;0.10;;;14.90;99.90;;;;;;5004041;28;20046;-68
2023/05/24 09:56:25;;;;;;;0.00;0.00;;;14.80;99.90;;;;;;5021178;28;20433;-68
2023/05/24 09:58:53;;;;;;;0.15;0.15;;;14.70;99.90;;;;;;5006440;28;20030;-68
2023/05/24 10:01:22;;;;;;;0.08;0.08;;;14.80;99.90;;;;;;5007946;28;20034;-68
2023/05/24 10:03:58;;;;;;;0.57;0.52;;;14.80;99.90;;;;;;4998505;28;20389;-68
2023/05/24 10:06:24;;;;;;;4.13;0.80;;;14.70;99.90;;;;;;5001986;28;20834;-68
2023/05/24 10:08:50;;;;;;;3.00;0.65;;;14.60;99.90;;;;;;4995862;28;20126;-68
2023/05/24 10:11:17;;;;;;;0.10;0.10;;;14.60;99.90;;;;;;5005762;28;20057;-67
2023/05/24 10:13:43;;;;;;;0.00;0.00;;;14.60;99.90;;;;;;5008708;28;20042;-67
2023/05/24 10:16:09;;;;;;;0.10;0.10;;;14.60;99.90;;;;;;5008460;28;20038;-67
2023/05/24 10:18:35;;;;;;;0.40;0.40;;;14.50;99.90;;;;;;4991344;28;20042;-67
2023/05/24 10:21:01;;;;;;;0.13;0.13;;;14.40;99.90;;;;;;5002017;28;20313;-68
2023/05/24 10:23:31;;;;;;;0.30;0.30;;;14.40;99.90;;;;;;5011135;28;20050;-67
2023/05/24 10:26:16;;;;;;;0.10;0.10;;;14.50;99.90;;;;;;4998355;28;20049;-67
2023/05/24 10:28:48;;;;;;;0.20;0.20;;;14.40;99.90;;;;;;5004956;28;20062;-67
2023/05/24 10:31:27;;;;;;;0.37;0.20;;;14.50;99.90;;;;;;4999269;28;20402;-67
2023/05/24 10:33:56;;;;;;;0.00;0.00;;;14.50;99.90;;;;;;4995242;28;20045;-67
2023/05/24 10:36:24;;;;;;;0.10;0.10;;;14.50;99.90;;;;;;5006240;28;20057;-68
2023/05/24 10:38:51;;;;;;;0.50;0.50;;;14.50;99.90;;;;;;5005979;28;20117;-67
2023/05/24 10:41:17;;;;;;;0.05;0.05;;;14.50;99.90;;;;;;4997741;28;20051;-67
2023/05/24 10:43:45;;;;;;;1.10;0.65;;;14.60;99.90;;;;;;5010215;28;20117;-67
2023/05/24 10:46:14;;;;;;;0.10;0.10;;;14.70;99.90;;;;;;5008327;28;20054;-67
2023/05/24 10:48:42;;;;;;;0.13;0.13;;;14.70;99.90;;;;;;4999083;28;20050;-67
2023/05/24 10:51:32;;;;;;;0.13;0.13;;;14.70;99.90;;;;;;5004846;28;20398;-68
2023/05/24 10:54:10;;;;;;;0.00;0.00;;;14.80;99.90;;;;;;4995922;28;20041;-68
2023/05/24 10:56:40;;;;;;;0.03;0.03;;;15.00;99.90;;;;;;5006473;28;20053;-67
2023/05/24 10:59:07;;;;;;;0.10;0.10;;;15.10;99.90;;;;;;5007653;28;20525;-67
2023/05/24 11:01:33;;;;;;;0.20;0.20;;;15.20;99.90;;;;;;5003458;28;20121;-67
2023/05/24 11:04:09;;;;;;;0.70;0.70;;;15.40;99.90;;;;;;4995392;28;20104;-68
2023/05/24 11:07:04;;;;;;;0.00;0.00;;;15.50;99.90;;;;;;4997474;28;20050;-68
2023/05/24 11:09:31;;;;;;;0.00;0.00;;;15.60;99.90;;;;;;4999668;28;20054;-67
2023/05/24 11:12:06;;;;;;;4.85;1.15;;;15.50;99.90;;;;;;4999832;28;20408;-68
2023/05/24 11:14:35;;;;;;;0.22;0.22;;;15.50;99.90;;;;;;5008520;28;20054;-68
2023/05/24 11:17:01;;;;;;;0.10;0.10;;;15.40;99.90;;;;;;4995274;28;20088;-68
2023/05/24 11:19:35;;;;;;;0.00;0.00;;;15.50;99.90;;;;;;5003945;28;20037;-68
2023/05/24 11:22:04;;;;;;;0.30;0.30;;;15.50;99.90;;;;;;5007028;28;20491;-67
2023/05/24 11:24:31;;;;;;;0.00;0.00;;;15.50;99.90;;;;;;4998072;28;20038;-68
2023/05/24 11:26:59;;;;;;;0.10;0.10;;;15.60;99.90;;;;;;4999481;28;20096;-68
2023/05/24 11:29:25;;;;;;;0.38;0.38;;;15.60;99.90;;;;;;5002774;28;20053;-67
2023/05/24 11:31:53;;;;;;;0.00;0.00;;;15.50;99.90;;;;;;5007723;28;20448;-68
2023/05/24 11:34:23;;;;;;;0.75;0.75;;;15.60;99.90;;;;;;5007986;28;20088;-68
2023/05/24 11:36:50;;;;;;;0.10;0.10;;;15.70;99.90;;;;;;4999962;28;20038;-68
2023/05/24 11:39:17;;;;;;;1.05;0.85;;;16.00;99.90;;;;;;5039818;28;20057;-67
2023/05/24 11:41:42;;;;;;;0.10;0.10;;;16.20;99.90;;;;;;5012602;28;20038;-68
2023/05/24 11:44:10;;;;;;;1.08;0.60;;;16.10;99.90;;;;;;5001262;28;20374;-68
2023/05/24 11:46:38;;;;;;;0.00;0.00;;;16.00;99.90;;;;;;5007186;28;20101;-68
2023/05/24 11:49:04;;;;;;;0.00;0.00;;;16.10;99.90;;;;;;4996363;28;20077;-67
2023/05/24 11:51:32;;;;;;;0.25;0.25;;;16.20;99.90;;;;;;5004699;28;20069;-67
2023/05/24 11:53:58;;;;;;;0.00;0.00;;;16.10;99.90;;;;;;5002347;28;20050;-68
2023/05/24 11:56:26;;;;;;;0.45;0.45;;;16.00;99.90;;;;;;5003952;28;20489;-67
2023/05/24 11:59:08;;;;;;;0.00;0.00;;;15.90;99.90;;;;;;5003028;28;20046;-67
2023/05/24 12:01:34;;;;;;;0.45;0.45;;;15.90;99.90;;;;;;4996385;28;20048;-67
2023/05/24 12:03:59;;;;;;;0.10;0.10;;;16.10;99.90;;;;;;5008742;28;20030;-67
2023/05/24 12:06:34;;;;;;;0.00;0.00;;;16.10;99.90;;;;;;5002212;28;20041;-67
2023/05/24 12:09:00;;;;;;;0.00;0.00;;;16.10;99.90;;;;;;4991462;28;20047;-67
2023/05/24 12:11:27;;;;;;;0.10;0.10;;;16.10;99.90;;;;;;4998582;28;20112;-67
2023/05/24 12:13:52;;;;;;;0.10;0.10;;;16.10;99.90;;;;;;5002108;28;20385;-67
2023/05/24 12:16:18;;;;;;;0.05;0.05;;;16.10;99.90;;;;;;5010723;28;20040;-67
2023/05/24 12:18:44;;;;;;;0.00;0.00;;;16.30;99.90;;;;;;5003902;28;20046;-67
2023/05/24 12:21:12;;;;;;;0.00;0.00;;;16.20;99.90;;;;;;5004133;28;20052;-67
2023/05/24 12:23:38;;;;;;;0.20;0.20;;;16.00;99.90;;;;;;5010574;28;20049;-67
2023/05/24 12:26:04;;;;;;;0.00;0.00;;;16.00;99.90;;;;;;5008289;28;20045;-67
2023/05/24 12:28:35;;;;;;;1.25;0.40;;;16.00;99.90;;;;;;5006685;28;20049;-67
2023/05/24 12:31:02;;;;;;;0.20;0.20;;;15.90;99.90;;;;;;5008654;28;20084;-67
2023/05/24 12:33:27;;;;;;;0.35;0.30;;;15.80;99.90;;;;;;5005728;28;20046;-67
2023/05/24 12:35:53;;;;;;;1.02;0.90;;;15.80;99.90;;;;;;5003389;28;20044;-67
2023/05/24 12:38:24;;;;;;;0.05;0.05;;;15.80;99.90;;;;;;5007998;28;20056;-67
2023/05/24 12:40:50;;;;;;;0.30;0.30;;;15.90;99.90;;;;;;4997727;28;20042;-66
2023/05/24 12:43:21;;;;;;;0.17;0.17;;;16.00;99.90;;;;;;4998172;28;20100;-67
2023/05/24 12:45:46;;;;;;;0.47;0.25;;;16.00;99.90;;;;;;5009673;28;20045;-67